createdAt,value
2022-11-21T00:00:43.002Z,8.40
2022-11-21T00:05:49.616Z,16.37
2022-11-21T00:10:54.770Z,21.17
2022-11-21T00:16:05.762Z,13.23
2022-11-21T00:21:13.659Z,11.47
2022-11-21T00:26:18.978Z,12.37
2022-11-21T00:31:26.340Z,13.17
2022-11-21T00:36:31.534Z,24.80
2022-11-21T00:41:36.726Z,10.80
2022-11-21T00:46:41.802Z,25.30
2022-11-21T00:51:47.113Z,9.50
2022-11-21T00:56:52.377Z,6.83
2022-11-21T01:01:57.602Z,18.93
2022-11-21T01:07:03.194Z,5.43
2022-11-21T01:12:08.509Z,6.80
2022-11-21T01:17:13.702Z,11.43
2022-11-21T01:22:18.839Z,19.53
2022-11-21T01:27:24.073Z,10.27
2022-11-21T01:32:29.285Z,12.77
2022-11-21T01:37:34.499Z,9.27
2022-11-21T01:42:54.040Z,11.63
2022-11-21T01:47:59.239Z,9.77
2022-11-21T01:53:04.826Z,11.23
2022-11-21T01:58:11.101Z,10.10
2022-11-21T02:03:19.390Z,7.13
2022-11-21T02:08:26.673Z,8.50
2022-11-21T02:13:33.141Z,6.37
2022-11-21T02:18:38.538Z,8.40
2022-11-21T02:23:49.570Z,14.70
2022-11-21T02:28:55.300Z,9.43
2022-11-21T02:34:00.454Z,7.23
2022-11-21T02:39:08.414Z,10.90
2022-11-21T02:44:19.230Z,10.03
2022-11-21T02:49:27.519Z,10.47
2022-11-21T02:54:32.828Z,7.27
2022-11-21T02:59:38.071Z,10.73
2022-11-21T03:04:43.264Z,9.77
2022-11-21T03:09:48.477Z,14.97
2022-11-21T03:14:53.783Z,18.57
2022-11-21T03:19:58.954Z,5.00
2022-11-21T03:25:04.366Z,10.87
2022-11-21T03:30:10.611Z,11.13
2022-11-21T03:35:16.019Z,7.13
2022-11-21T03:40:21.342Z,11.87
2022-11-21T03:45:26.609Z,7.43
2022-11-21T03:50:31.722Z,6.03
2022-11-21T03:55:36.874Z,19.50
2022-11-21T04:00:41.992Z,11.37
2022-11-21T04:05:47.196Z,17.50
2022-11-21T04:10:53.908Z,9.77
2022-11-21T04:15:59.596Z,6.00
2022-11-21T04:21:08.696Z,10.43
2022-11-21T04:26:13.900Z,7.20
2022-11-21T04:31:19.102Z,19.53
2022-11-21T04:36:24.215Z,22.80
2022-11-21T04:41:29.407Z,9.37
2022-11-21T04:46:34.529Z,16.07
2022-11-21T04:51:39.682Z,13.13
2022-11-21T04:57:06.228Z,11.70
2022-11-21T05:02:11.859Z,20.37
2022-11-21T05:07:18.275Z,12.73
2022-11-21T05:12:41.583Z,22.20
2022-11-21T05:17:46.811Z,10.53
2022-11-21T05:22:55.208Z,12.13
2022-11-21T05:28:00.433Z,12.33
2022-11-21T05:33:07.464Z,24.43
2022-11-21T05:38:13.322Z,25.67
2022-11-21T05:43:36.452Z,24.80
2022-11-21T05:48:41.791Z,9.13
2022-11-21T05:53:47.759Z,16.17
2022-11-21T05:58:54.650Z,13.90
2022-11-21T06:04:01.671Z,17.37
2022-11-21T06:09:07.055Z,27.33
2022-11-21T06:14:12.276Z,11.53
2022-11-21T06:19:17.609Z,18.90
2022-11-21T06:24:22.704Z,16.67
2022-11-21T06:29:28.182Z,24.03
2022-11-21T06:34:33.897Z,18.47
2022-11-21T06:39:39.109Z,32.33
2022-11-21T06:44:44.332Z,9.90
2022-11-21T06:49:49.590Z,22.43
2022-11-21T06:54:54.765Z,18.30
2022-11-21T06:59:59.863Z,16.07
2022-11-21T07:05:05.145Z,13.90
2022-11-21T07:10:10.997Z,10.33
2022-11-21T07:15:16.182Z,11.00
2022-11-21T07:20:21.268Z,17.17
2022-11-21T07:25:26.452Z,24.60
2022-11-21T07:30:31.749Z,19.13
2022-11-21T07:35:37.569Z,23.47
2022-11-21T07:40:42.984Z,17.90
2022-11-21T07:45:48.263Z,23.17
2022-11-21T07:50:53.472Z,21.73
2022-11-21T07:56:00.389Z,13.20
2022-11-21T08:01:19.088Z,7.70
2022-11-21T08:06:26.391Z,24.30
2022-11-21T08:11:32.772Z,21.57
2022-11-21T08:16:38.144Z,21.57
2022-11-21T08:21:43.356Z,12.03
2022-11-21T08:26:48.752Z,41.00
2022-11-21T08:31:53.852Z,24.07
2022-11-21T08:37:00.195Z,12.63
2022-11-21T08:42:05.531Z,12.47
2022-11-21T08:47:10.702Z,10.03
2022-11-21T08:52:17.701Z,14.40
2022-11-21T08:57:23.058Z,23.87
2022-11-21T09:02:28.290Z,24.30
2022-11-21T09:07:35.856Z,18.70
2022-11-21T09:12:41.256Z,22.93
2022-11-21T09:18:04.979Z,10.87
2022-11-21T09:23:13.001Z,24.83
2022-11-21T09:28:18.292Z,35.07
2022-11-21T09:33:23.664Z,32.47
2022-11-21T09:38:31.319Z,16.57
2022-11-21T09:43:53.069Z,22.43
2022-11-21T09:48:58.561Z,31.67
2022-11-21T09:54:13.317Z,17.10
2022-11-21T09:59:36.348Z,24.23
2022-11-21T10:04:41.789Z,31.60
2022-11-21T10:10:11.026Z,23.57
2022-11-21T10:15:25.441Z,21.43
2022-11-21T10:20:50.209Z,40.00
2022-11-21T10:25:57.996Z,22.27
2022-11-21T10:31:05.756Z,20.17
2022-11-21T10:36:16.740Z,20.87
2022-11-21T10:41:33.930Z,17.27
2022-11-21T10:46:39.245Z,12.73
2022-11-21T10:51:53.262Z,23.37
2022-11-21T10:57:10.066Z,15.97
2022-11-21T11:02:18.303Z,17.20
2022-11-21T11:07:29.553Z,17.90
2022-11-21T11:12:52.796Z,19.33
2022-11-21T11:18:09.563Z,17.40
2022-11-21T11:23:28.115Z,23.50
2022-11-21T11:28:38.062Z,15.83
2022-11-21T11:33:52.026Z,17.33
2022-11-21T11:39:00.819Z,23.93
2022-11-21T11:44:27.291Z,31.40
2022-11-21T11:50:03.483Z,30.37
2022-11-21T11:55:13.065Z,25.20
2022-11-21T12:00:42.340Z,22.73
2022-11-21T12:05:59.276Z,22.30
2022-11-21T12:11:43.783Z,9.03
2022-11-21T12:16:49.002Z,21.23
2022-11-21T12:21:54.939Z,20.10
2022-11-21T12:27:27.256Z,21.40
2022-11-21T12:32:50.731Z,26.33
2022-11-21T12:38:00.415Z,18.87
2022-11-21T12:43:37.576Z,71.47
2022-11-21T12:49:23.106Z,44.20
2022-11-21T12:54:31.390Z,56.00
2022-11-21T13:00:06.868Z,15.73
2022-11-21T13:05:15.051Z,14.67
2022-11-21T13:10:20.551Z,23.17
2022-11-21T13:15:31.807Z,23.77
2022-11-21T13:20:44.276Z,34.70
2022-11-21T13:25:49.634Z,32.50
2022-11-21T13:30:56.503Z,28.77
2022-11-21T13:36:04.843Z,22.37
2022-11-21T13:41:28.276Z,20.07
2022-11-21T13:47:02.756Z,33.13
2022-11-21T13:52:32.475Z,27.20
2022-11-21T13:58:04.457Z,30.13
2022-11-21T14:03:36.828Z,17.67
2022-11-21T14:08:48.072Z,23.70
2022-11-21T14:13:53.870Z,27.80
2022-11-21T14:19:01.071Z,27.63
2022-11-21T14:24:20.428Z,20.83
2022-11-21T14:29:42.453Z,35.47
2022-11-21T14:34:48.075Z,26.80
2022-11-21T14:39:57.275Z,25.63
2022-11-21T14:45:19.871Z,29.50
2022-11-21T14:50:30.521Z,14.00
2022-11-21T14:55:55.664Z,27.63
2022-11-21T15:01:29.968Z,31.43
2022-11-21T15:07:01.960Z,26.97
2022-11-21T15:12:49.304Z,26.00
2022-11-21T15:23:37.750Z,33.43
2022-11-21T15:28:47.419Z,29.20
2022-11-21T15:39:10.111Z,25.93
2022-11-21T15:44:18.646Z,45.50
2022-11-21T15:49:32.791Z,42.60
2022-11-21T15:54:32.595Z,37.20
2022-11-21T15:59:38.767Z,31.93
2022-11-21T16:04:44.290Z,24.17
2022-11-21T16:09:50.367Z,24.17
2022-11-21T16:14:55.714Z,35.13
2022-11-21T16:20:01.035Z,41.17
2022-11-21T16:25:06.965Z,45.80
2022-11-21T16:30:13.033Z,47.57
2022-11-21T16:35:18.427Z,41.47
2022-11-21T16:40:23.729Z,37.60
2022-11-21T16:45:30.333Z,37.93
2022-11-21T16:50:35.596Z,33.20
2022-11-21T16:55:42.367Z,28.60
2022-11-21T17:00:47.656Z,27.77
2022-11-21T17:06:00.764Z,39.43
2022-11-21T17:11:23.473Z,39.53
2022-11-21T17:16:29.487Z,32.43
2022-11-21T17:21:35.284Z,33.07
2022-11-21T17:26:40.599Z,47.10
2022-11-21T17:31:47.020Z,33.20
2022-11-21T17:36:52.812Z,38.10
2022-11-21T17:42:00.348Z,48.80
2022-11-21T17:47:05.783Z,44.73
2022-11-21T17:52:10.981Z,43.77
2022-11-21T17:57:16.317Z,47.87
2022-11-21T18:02:22.792Z,55.77
2022-11-21T18:07:30.818Z,50.53
2022-11-21T18:12:36.491Z,33.80
2022-11-21T18:17:41.901Z,48.47
2022-11-21T18:22:48.863Z,48.00
2022-11-21T18:27:54.816Z,57.70
2022-11-21T18:33:00.943Z,52.07
2022-11-21T18:38:06.439Z,48.70
2022-11-21T18:43:12.974Z,56.53
2022-11-21T18:48:18.358Z,58.47
2022-11-21T18:53:25.203Z,205.17
2022-11-21T18:58:35.029Z,60.80
2022-11-21T19:03:44.740Z,49.07
2022-11-21T19:08:55.147Z,49.70
2022-11-21T19:14:06.513Z,49.80
2022-11-21T19:24:24.198Z,65.00
2022-11-21T19:29:30.488Z,41.53
2022-11-21T19:34:36.226Z,38.93
2022-11-21T19:39:41.833Z,29.97
2022-11-21T19:44:50.066Z,38.50
2022-11-21T19:49:56.474Z,49.40
2022-11-21T19:55:02.028Z,58.03
2022-11-21T20:00:08.364Z,39.77
2022-11-21T20:05:15.342Z,46.33
2022-11-21T20:10:21.001Z,57.47
2022-11-21T20:15:31.392Z,45.53
2022-11-21T20:20:38.735Z,28.13
2022-11-21T20:25:45.613Z,71.00
2022-11-21T20:30:52.546Z,74.87
2022-11-21T20:36:01.453Z,41.83
2022-11-21T20:41:09.013Z,32.97
2022-11-21T20:46:20.130Z,42.77
2022-11-21T20:56:54.095Z,40.97
2022-11-21T21:01:59.621Z,59.17
2022-11-21T21:07:05.273Z,63.87
2022-11-21T21:12:10.788Z,45.47
2022-11-21T21:17:19.719Z,46.13
2022-11-21T21:22:26.566Z,47.67
2022-11-21T21:27:33.524Z,49.07
2022-11-21T21:32:39.972Z,42.63
2022-11-21T21:37:50.212Z,46.67
2022-11-21T21:42:57.922Z,49.83
2022-11-21T21:48:08.105Z,51.67
2022-11-21T21:53:15.226Z,36.70
2022-11-21T21:58:21.255Z,30.97
2022-11-21T22:03:30.216Z,54.73
2022-11-21T22:08:39.537Z,45.37
2022-11-21T22:13:50.876Z,43.20
2022-11-21T22:18:59.579Z,50.37
2022-11-21T22:24:26.996Z,69.40
2022-11-21T22:29:26.555Z,49.40
2022-11-21T22:34:33.524Z,49.37
2022-11-21T22:39:43.835Z,49.70
2022-11-21T22:44:52.894Z,58.63
2022-11-21T22:49:59.438Z,52.40
2022-11-21T22:55:05.947Z,54.27
2022-11-21T23:00:14.716Z,46.03
2022-11-21T23:05:22.089Z,52.50
2022-11-21T23:10:31.631Z,44.23
2022-11-21T23:15:41.281Z,55.10
2022-11-21T23:20:49.311Z,50.50
2022-11-21T23:25:56.852Z,35.90
2022-11-21T23:31:07.484Z,58.00
2022-11-21T23:36:12.800Z,54.20
2022-11-21T23:41:21.825Z,39.23
2022-11-21T23:46:29.275Z,47.20
2022-11-21T23:51:38.332Z,65.30
2022-11-21T23:56:53.075Z,51.87
